Time;durP1;ratioP1;P1;durP2;ratioP2;P2;SDS_P1;SDS_P2;PMS_P1;PMS_P2;Temp;Humidity;BMP_temperature;BMP_pressure;BME280_temperature;BME280_humidity;BME280_pressure;Samples;Min_cycle;Max_cycle;Signal;HPM_P1;HPM_P2
2020/12/17 00:02:26;;;;;;;;;;;;;;;5.69;100.00;99192.31;5095136;28;19928;-75
2020/12/17 00:04:52;;;;;;;;;;;;;;;5.76;100.00;99178.47;5093837;28;19974;-76
2020/12/17 00:07:19;;;;;;;;;;;;;;;5.73;100.00;99182.84;5094800;28;19924;-75
2020/12/17 00:09:45;;;;;;;;;;;;;;;5.78;100.00;99188.03;5094995;28;19928;-75
2020/12/17 00:12:12;;;;;;;;;;;;;;;5.81;100.00;99175.34;5095032;28;19946;-75
2020/12/17 00:14:38;;;;;;;;;;;;;;;5.79;100.00;99184.06;5094777;28;19934;-75
2020/12/17 00:17:05;;;;;;;;;;;;;;;5.77;100.00;99185.63;5094899;28;19928;-75
2020/12/17 00:19:32;;;;;;;;;;;;;;;5.85;100.00;99185.31;5127786;27;19930;-75
2020/12/17 00:21:58;;;;;;;;;;;;;;;5.86;100.00;99180.56;5094789;28;19928;-75
2020/12/17 00:24:25;;;;;;;;;;;;;;;5.83;100.00;99192.44;5094856;28;20394;-75
2020/12/17 00:26:51;;;;;;;;;;;;;;;5.83;100.00;99190.44;5094703;27;20360;-75
2020/12/17 00:29:18;;;;;;;;;;;;;;;5.91;100.00;99185.75;5094440;28;20014;-75
2020/12/17 00:31:45;;;;;;;;;;;;;;;5.92;100.00;99190.09;5094768;28;19924;-75
2020/12/17 00:34:11;;;;;;;;;;;;;;;5.94;100.00;99190.50;5094655;28;19931;-75
2020/12/17 00:36:46;;;;;;;;;;;;;;;5.95;100.00;99190.13;5094692;27;19959;-75
2020/12/17 00:39:12;;;;;;;;;;;;;;;5.89;100.00;99188.09;5094574;28;19970;-75
2020/12/17 00:41:39;;;;;;;;;;;;;;;5.85;100.00;99181.72;5094519;28;19956;-75
2020/12/17 00:44:05;;;;;;;;;;;;;;;5.81;100.00;99187.25;5094257;28;19945;-75
2020/12/17 00:46:32;;;;;;;;;;;;;;;5.86;100.00;99175.00;5094406;28;20011;-75
2020/12/17 00:48:58;;;;;;;;;;;;;;;5.81;100.00;99184.47;5094272;28;20380;-75
2020/12/17 00:51:25;;;;;;;;;;;;;;;5.80;100.00;99179.31;5094342;28;20280;-75
2020/12/17 00:53:51;;;;;;;;;;;;;;;5.86;100.00;99180.56;5094328;28;19924;-75
2020/12/17 00:56:18;;;;;;;;;;;;;;;5.76;100.00;99178.47;5094359;28;20286;-75
2020/12/17 00:58:45;;;;;;;;;;;;;;;5.71;100.00;99170.56;5092927;28;19924;-75
2020/12/17 01:01:11;;;;;;;;;;;;;;;5.63;100.00;99167.72;5094072;28;20359;-75
2020/12/17 01:03:38;;;;;;;;;;;;;;;5.59;100.00;99178.03;5093034;28;20025;-75
2020/12/17 01:06:08;;;;;;;;;;;;;;;5.63;100.00;99174.47;5094157;28;20307;-75
2020/12/17 01:08:35;;;;;;;;;;;;;;;5.56;100.00;99177.97;5094127;28;19924;-75
2020/12/17 01:11:02;;;;;;;;;;;;;;;5.56;100.00;99176.03;5094096;28;20375;-75
2020/12/17 01:13:29;;;;;;;;;;;;;;;5.51;100.00;99176.38;5093868;28;20421;-75
2020/12/17 01:15:55;;;;;;;;;;;;;;;5.46;100.00;99162.91;5108645;28;20847;-75
2020/12/17 01:18:22;;;;;;;;;;;;;;;5.36;100.00;99166.38;5113180;28;20363;-75
2020/12/17 01:20:49;;;;;;;;;;;;;;;5.36;100.00;99166.38;5114223;28;20060;-75
2020/12/17 01:23:15;;;;;;;;;;;;;;;5.33;100.00;99161.63;5114522;28;19927;-75
2020/12/17 01:25:42;;;;;;;;;;;;;;;5.41;100.00;99163.25;5096146;28;19931;-75
2020/12/17 01:28:10;;;;;;;;;;;;;;;5.40;100.00;99167.22;5114227;28;20022;-75
2020/12/17 01:30:37;;;;;;;;;;;;;;;5.48;100.00;99177.16;5114405;28;19938;-75
2020/12/17 01:33:03;;;;;;;;;;;;;;;5.37;100.00;99170.78;5114054;28;19924;-74
2020/12/17 01:35:30;;;;;;;;;;;;;;;5.34;100.00;99170.75;5114390;28;20382;-74
2020/12/17 01:37:57;;;;;;;;;;;;;;;5.29;100.00;99171.91;5114087;28;19924;-74
2020/12/17 01:40:23;;;;;;;;;;;;;;;5.20;100.00;99174.22;5095976;28;20375;-74
2020/12/17 01:42:50;;;;;;;;;;;;;;;5.25;100.00;99176.63;5113975;28;20359;-74
2020/12/17 01:45:17;;;;;;;;;;;;;;;5.34;100.00;99188.16;5114093;28;20493;-74
2020/12/17 01:47:46;;;;;;;;;;;;;;;5.33;100.00;99200.41;5114017;28;19947;-75
2020/12/17 01:50:12;;;;;;;;;;;;;;;5.36;100.00;99209.94;5114103;28;19930;-74
2020/12/17 01:52:39;;;;;;;;;;;;;;;5.34;100.00;99201.22;5095919;28;19963;-75
2020/12/17 01:55:06;;;;;;;;;;;;;;;5.40;100.00;99203.25;5114032;28;19928;-76
2020/12/17 01:57:34;;;;;;;;;;;;;;;5.46;100.00;99203.69;5113915;28;19924;-75
2020/12/17 02:00:04;;;;;;;;;;;;;;;5.54;100.00;99206.09;5114013;28;19924;-74
2020/12/17 02:02:31;;;;;;;;;;;;;;;5.59;100.00;99219.59;5113842;28;20367;-75
2020/12/17 02:04:59;;;;;;;;;;;;;;;5.60;100.00;99229.50;5113902;28;19924;-75
2020/12/17 02:07:36;;;;;;;;;;;;;;;5.63;100.00;99230.72;5114140;28;19928;-75
2020/12/17 02:10:03;;;;;;;;;;;;;;;5.71;100.00;99228.78;5113946;28;20497;-74
2020/12/17 02:12:46;;;;;;;;;;;;;;;5.72;100.00;99235.91;5113707;28;19996;-75
2020/12/17 02:15:13;;;;;;;;;;;;;;;5.69;100.00;99228.38;5113899;28;20002;-75
2020/12/17 02:17:40;;;;;;;;;;;;;;;5.67;100.00;99230.72;5113867;28;20001;-75
2020/12/17 02:20:07;;;;;;;;;;;;;;;5.65;100.00;99239.41;5113907;28;19927;-75
2020/12/17 02:22:37;;;;;;;;;;;;;;;5.66;100.00;99243.00;5113892;28;19924;-75
2020/12/17 02:25:04;;;;;;;;;;;;;;;5.59;100.00;99239.00;5113844;28;20060;-75
2020/12/17 02:27:31;;;;;;;;;;;;;;;5.71;100.00;99253.72;5095835;28;20381;-75
2020/12/17 02:29:57;;;;;;;;;;;;;;;5.66;100.00;99245.75;5079547;28;19924;-75
2020/12/17 02:32:24;;;;;;;;;;;;;;;5.78;100.00;99253.75;5117599;28;19924;-74
2020/12/17 02:34:50;;;;;;;;;;;;;;;5.81;100.00;99255.75;5099471;28;19997;-75
2020/12/17 02:37:17;;;;;;;;;;;;;;;5.92;100.00;99264.97;5117433;28;19924;-75
2020/12/17 02:39:44;;;;;;;;;;;;;;;6.03;100.00;99271.38;5117292;28;19923;-75
2020/12/17 02:42:10;;;;;;;;;;;;;;;6.09;100.00;99278.16;5099293;28;19923;-75
2020/12/17 02:44:37;;;;;;;;;;;;;;;6.14;100.00;99272.22;5117336;28;19928;-74
2020/12/17 02:47:03;;;;;;;;;;;;;;;6.12;100.00;99269.81;5117226;28;19930;-74
2020/12/17 02:49:30;;;;;;;;;;;;;;;6.17;100.00;99274.22;5117286;28;19924;-75
2020/12/17 02:51:57;;;;;;;;;;;;;;;6.17;100.00;99272.25;5117276;28;19924;-74
2020/12/17 02:54:23;;;;;;;;;;;;;;;6.22;100.00;99273.84;5099019;28;19923;-74
2020/12/17 02:56:49;;;;;;;;;;;;;;;6.19;100.00;99271.84;5116994;28;19924;-74
2020/12/17 02:59:16;;;;;;;;;;;;;;;6.22;100.00;99271.06;5116952;28;19930;-74
2020/12/17 03:01:43;;;;;;;;;;;;;;;6.19;100.00;99267.09;5116856;28;19924;-74
2020/12/17 03:04:09;;;;;;;;;;;;;;;6.26;100.00;99269.91;5117076;28;19928;-74
2020/12/17 03:06:36;;;;;;;;;;;;;;;6.31;100.00;99274.28;5116839;28;19928;-74
2020/12/17 03:09:03;;;;;;;;;;;;;;;6.31;100.00;99271.50;5116740;28;19923;-75
2020/12/17 03:11:30;;;;;;;;;;;;;;;6.32;100.00;99268.34;5098772;28;19930;-75
2020/12/17 03:13:56;;;;;;;;;;;;;;;6.33;100.00;99263.59;5116990;28;20018;-75
2020/12/17 03:16:23;;;;;;;;;;;;;;;6.31;100.00;99271.50;5116660;28;19945;-75
2020/12/17 03:18:50;;;;;;;;;;;;;;;6.38;100.00;99260.41;5116645;28;20355;-75
2020/12/17 03:21:17;;;;;;;;;;;;;;;6.38;100.00;99261.22;5116625;28;19924;-75
2020/12/17 03:23:44;;;;;;;;;;;;;;;6.38;100.00;99271.53;5116378;28;19924;-75
2020/12/17 03:26:10;;;;;;;;;;;;;;;6.37;100.00;99265.19;5116462;28;20478;-75
2020/12/17 03:28:37;;;;;;;;;;;;;;;6.31;100.00;99263.19;5116325;28;19959;-75
2020/12/17 03:31:04;;;;;;;;;;;;;;;6.32;100.00;99267.53;5116375;28;19930;-75
2020/12/17 03:33:31;;;;;;;;;;;;;;;6.34;100.00;99267.94;5116363;28;19924;-74
2020/12/17 03:35:57;;;;;;;;;;;;;;;6.32;100.00;99267.53;5132293;27;20001;-75
2020/12/17 03:38:37;;;;;;;;;;;;;;;6.33;100.00;99269.16;5115968;28;19924;-75
2020/12/17 03:41:04;;;;;;;;;;;;;;;6.27;100.00;99265.16;5098122;28;19931;-75
2020/12/17 03:43:30;;;;;;;;;;;;;;;6.24;100.00;99254.84;5115471;28;19930;-75
2020/12/17 03:45:57;;;;;;;;;;;;;;;6.24;100.00;99260.38;5115986;28;20031;-74
2020/12/17 03:48:24;;;;;;;;;;;;;;;6.18;100.00;99254.41;5115901;28;19923;-75
2020/12/17 03:50:50;;;;;;;;;;;;;;;6.13;100.00;99265.09;5097993;28;19924;-75
2020/12/17 03:53:17;;;;;;;;;;;;;;;6.01;100.00;99266.22;5115751;28;19930;-75
2020/12/17 03:55:44;;;;;;;;;;;;;;;5.95;100.00;99259.47;5115914;28;19997;-76
2020/12/17 03:58:11;;;;;;;;;;;;;;;5.94;100.00;99268.94;5097406;28;19926;-75
2020/12/17 04:00:38;;;;;;;;;;;;;;;5.93;100.00;99263.78;5115473;28;19924;-77
2020/12/17 04:03:04;;;;;;;;;;;;;;;5.90;100.00;99259.00;5115773;28;19969;-75
2020/12/17 04:05:31;;;;;;;;;;;;;;;5.85;100.00;99253.81;5097460;28;19924;-75
2020/12/17 04:07:57;;;;;;;;;;;;;;;5.80;100.00;99254.19;5115380;28;19923;-75
2020/12/17 04:10:24;;;;;;;;;;;;;;;5.74;100.00;99255.72;5097312;28;19924;-75
2020/12/17 04:12:50;;;;;;;;;;;;;;;5.66;100.00;99257.66;5097233;28;19924;-75
2020/12/17 04:15:18;;;;;;;;;;;;;;;5.63;100.00;99263.19;5115381;28;19939;-75
2020/12/17 04:17:45;;;;;;;;;;;;;;;5.63;100.00;99266.75;5115324;28;19928;-75
2020/12/17 04:20:11;;;;;;;;;;;;;;;5.62;100.00;99272.69;5115247;28;19924;-76
2020/12/17 04:22:38;;;;;;;;;;;;;;;5.57;100.00;99279.38;5115132;28;19923;-76
2020/12/17 04:25:04;;;;;;;;;;;;;;;5.55;100.00;99288.09;5115311;28;20014;-75
2020/12/17 04:27:31;;;;;;;;;;;;;;;5.51;100.00;99278.94;5096966;28;20014;-76
2020/12/17 04:29:57;;;;;;;;;;;;;;;5.52;100.00;99288.03;5115147;28;19924;-76
2020/12/17 04:32:24;;;;;;;;;;;;;;;5.49;100.00;99292.38;5115162;28;20278;-76
2020/12/17 04:34:50;;;;;;;;;;;;;;;5.51;100.00;99292.78;5114944;28;19948;-76
2020/12/17 04:37:17;;;;;;;;;;;;;;;5.48;100.00;99296.31;5114817;28;19931;-75
2020/12/17 04:39:43;;;;;;;;;;;;;;;5.42;100.00;99291.53;5114894;28;19924;-75
2020/12/17 04:42:11;;;;;;;;;;;;;;;5.42;100.00;99308.94;5114807;28;19924;-77
2020/12/17 04:44:38;;;;;;;;;;;;;;;5.44;100.00;99305.78;5114769;28;19923;-76
2020/12/17 04:47:05;;;;;;;;;;;;;;;5.43;100.00;99310.56;5114768;28;20359;-76
2020/12/17 04:49:44;;;;;;;;;;;;;;;5.39;100.00;99315.25;5114712;28;20504;-77
2020/12/17 04:52:13;;;;;;;;;;;;;;;5.30;100.00;99322.31;5114788;28;19960;-76
2020/12/17 04:54:39;;;;;;;;;;;;;;;5.30;100.00;99319.53;5113639;28;19942;-76
2020/12/17 04:57:06;;;;;;;;;;;;;;;5.34;100.00;99323.94;5114607;28;20023;-76
2020/12/17 04:59:40;;;;;;;;;;;;;;;5.39;100.00;99342.97;5114560;28;19931;-77
2020/12/17 05:02:07;;;;;;;;;;;;;;;5.40;100.00;99336.25;5096017;28;19963;-76
2020/12/17 05:04:35;;;;;;;;;;;;;;;5.44;100.00;99337.06;5114441;28;20700;-76
2020/12/17 05:07:04;;;;;;;;;;;;;;;5.51;100.00;99339.91;5114409;28;20077;-76
2020/12/17 05:09:36;;;;;;;;;;;;;;;5.52;100.00;99341.50;5096261;28;20244;-76
2020/12/17 05:12:02;;;;;;;;;;;;;;;5.55;100.00;99339.94;5079567;28;19924;-76
2020/12/17 07:19:23;;;;;;;;;;;;;;;5.18;100.00;99583.78;5111551;27;20020;-75
2020/12/17 07:21:51;;;;;;;;;;;;;;;5.15;100.00;99601.16;5111706;28;19924;-76
2020/12/17 07:24:22;;;;;;;;;;;;;;;5.19;100.00;99635.28;5092895;28;19924;-74
2020/12/17 07:26:50;;;;;;;;;;;;;;;5.19;100.00;99649.13;5110863;28;20370;-75
2020/12/17 07:29:16;;;;;;;;;;;;;;;5.14;100.00;99668.81;5093215;28;20373;-75
2020/12/17 07:31:43;;;;;;;;;;;;;;;5.13;100.00;99678.31;5111537;28;19924;-75
2020/12/17 07:34:20;;;;;;;;;;;;;;;5.10;100.00;99684.56;5111429;28;19924;-75
2020/12/17 07:36:48;;;;;;;;;;;;;;;5.05;100.00;99686.88;5111369;28;19924;-75
2020/12/17 07:39:15;;;;;;;;;;;;;;;5.12;100.00;99687.78;5110793;28;19930;-75
2020/12/17 07:41:42;;;;;;;;;;;;;;;5.10;100.00;99689.34;5111047;28;20405;-75
2020/12/17 07:44:34;;;;;;;;;;;;;;;5.07;100.00;99690.84;5111251;28;19931;-75
2020/12/17 07:47:20;;;;;;;;;;;;;;;5.10;100.00;99684.56;5111202;28;19924;-75
2020/12/17 07:49:46;;;;;;;;;;;;;;;5.13;100.00;99694.94;5110743;28;19924;-75
2020/12/17 07:52:28;;;;;;;;;;;;;;;5.06;100.00;99689.28;5126288;27;19967;-75
2020/12/17 07:54:55;;;;;;;;;;;;;;;5.03;100.00;99692.78;5111264;28;20271;-75
2020/12/17 07:57:21;;;;;;;;;;;;;;;5.02;100.00;99693.16;5110940;28;20427;-74
2020/12/17 07:59:48;;;;;;;;;;;;;;;4.97;100.00;99683.19;5126788;27;19931;-74
2020/12/17 08:02:14;;;;;;;;;;;;;;;5.01;100.00;99688.78;5110915;28;19935;-75
2020/12/17 08:04:46;;;;;;;;;;;;;;;4.96;100.00;99683.56;5110851;28;19969;-76
2020/12/17 08:07:14;;;;;;;;;;;;;;;4.94;100.00;99681.16;5110746;28;19935;-76
2020/12/17 08:09:41;;;;;;;;;;;;;;;5.13;100.00;99689.41;5092858;28;19969;-76
2020/12/17 08:12:10;;;;;;;;;;;;;;;5.10;100.00;99695.66;5110676;28;19931;-76
2020/12/17 08:14:36;;;;;;;;;;;;;;;5.09;100.00;99691.28;5110826;28;19931;-76
2020/12/17 08:17:06;;;;;;;;;;;;;;;5.14;100.00;99696.53;5110379;28;19924;-76
2020/12/17 08:19:33;;;;;;;;;;;;;;;5.09;100.00;99699.59;5110643;28;19931;-76
2020/12/17 08:22:01;;;;;;;;;;;;;;;5.15;100.00;99692.56;5110109;28;20263;-77
2020/12/17 08:24:28;;;;;;;;;;;;;;;5.16;100.00;99699.72;5126410;27;19930;-76
2020/12/17 08:26:55;;;;;;;;;;;;;;;5.20;100.00;99700.56;5092398;28;19928;-76
2020/12/17 08:29:23;;;;;;;;;;;;;;;5.15;100.00;99698.13;5104625;28;20293;-76
2020/12/17 08:31:51;;;;;;;;;;;;;;;5.16;100.00;99696.97;5078587;28;19924;-76
2020/12/17 08:34:17;;;;;;;;;;;;;;;5.20;100.00;99705.31;5096783;28;19931;-76
2020/12/17 08:36:44;;;;;;;;;;;;;;;5.17;100.00;99695.78;5096384;28;19978;-77
2020/12/17 08:39:13;;;;;;;;;;;;;;;5.17;100.00;99704.09;5078275;28;20041;-77
2020/12/17 08:41:48;;;;;;;;;;;;;;;5.18;100.00;99693.81;5078531;28;19924;-77
2020/12/17 08:44:18;;;;;;;;;;;;;;;5.20;100.00;99711.66;5096554;28;19947;-77
2020/12/17 08:46:46;;;;;;;;;;;;;;;5.19;100.00;99712.84;5096561;28;19927;-77
2020/12/17 08:49:12;;;;;;;;;;;;;;;5.20;100.00;99708.06;5078380;28;19924;-76
2020/12/17 08:51:43;;;;;;;;;;;;;;;5.23;100.00;99710.91;5096094;28;19925;-77
2020/12/17 08:54:22;;;;;;;;;;;;;;;5.21;100.00;99713.25;5096220;28;19924;-77
2020/12/17 08:56:55;;;;;;;;;;;;;;;5.19;100.00;99709.25;5078252;28;20062;-76
2020/12/17 08:59:21;;;;;;;;;;;;;;;5.17;100.00;99706.88;5095715;28;19986;-76
2020/12/17 09:01:49;;;;;;;;;;;;;;;5.19;100.00;99712.84;5095974;28;19924;-76
2020/12/17 09:04:16;;;;;;;;;;;;;;;5.17;100.00;99717.94;5095931;28;19929;-76
2020/12/17 09:06:49;;;;;;;;;;;;;;;5.19;100.00;99723.91;5077775;28;19924;-76
2020/12/17 09:09:18;;;;;;;;;;;;;;;5.23;100.00;99718.41;5095650;28;19924;-77
2020/12/17 09:11:46;;;;;;;;;;;;;;;5.27;100.00;99733.94;5077430;28;19928;-76
2020/12/17 09:14:19;;;;;;;;;;;;;;;5.32;100.00;99730.03;5095836;28;20282;-77
2020/12/17 09:16:47;;;;;;;;;;;;;;;5.36;100.00;99734.47;5095908;28;20416;-77
2020/12/17 09:19:14;;;;;;;;;;;;;;;5.36;100.00;99742.78;5094941;28;19935;-77
2020/12/17 09:22:00;;;;;;;;;;;;;;;5.38;100.00;99734.09;5077191;28;19930;-77
2020/12/17 09:24:27;;;;;;;;;;;;;;;5.44;100.00;99724.28;5096622;28;19930;-77
2020/12/17 09:26:56;;;;;;;;;;;;;;;5.46;100.00;99739.38;5106787;28;19927;-76
2020/12/17 09:29:23;;;;;;;;;;;;;;;5.42;100.00;99730.19;5105500;28;19928;-78
2020/12/17 09:31:49;;;;;;;;;;;;;;;5.42;100.00;99737.72;5090955;28;19963;-77
2020/12/17 09:34:18;;;;;;;;;;;;;;;5.41;100.00;99734.16;5066416;28;19956;-76
2020/12/17 09:36:54;;;;;;;;;;;;;;;5.39;100.00;99742.03;5095138;28;19951;-77
2020/12/17 09:39:20;;;;;;;;;;;;;;;5.44;100.00;99744.50;5087113;28;19924;-77
2020/12/17 09:41:51;;;;;;;;;;;;;;;5.49;100.00;99744.19;5088696;28;19924;-76
2020/12/17 09:44:30;;;;;;;;;;;;;;;5.46;100.00;99747.69;5090929;28;19924;-76
2020/12/17 09:46:57;;;;;;;;;;;;;;;5.47;100.00;99743.75;5090739;28;19939;-74
2020/12/17 09:49:24;;;;;;;;;;;;;;;5.52;100.00;99757.28;5076402;28;20369;-76
2020/12/17 09:52:02;;;;;;;;;;;;;;;5.53;100.00;99747.78;5090035;28;19924;-76
2020/12/17 09:54:29;;;;;;;;;;;;;;;5.53;100.00;99746.97;5097080;28;20026;-76
2020/12/17 09:57:03;;;;;;;;;;;;;;;5.51;100.00;99755.66;5089818;28;19924;-76
2020/12/17 09:59:29;;;;;;;;;;;;;;;5.56;100.00;99755.34;5091070;28;19970;-76
2020/12/17 10:01:57;;;;;;;;;;;;;;;5.59;100.00;99760.16;5090651;28;19924;-76
2020/12/17 10:04:25;;;;;;;;;;;;;;;5.58;100.00;99754.97;5086856;28;19935;-76
2020/12/17 10:06:52;;;;;;;;;;;;;;;5.62;100.00;99757.81;5090850;28;19928;-76
2020/12/17 10:09:20;;;;;;;;;;;;;;;5.65;100.00;99771.72;5093046;28;20375;-76
2020/12/17 10:11:50;;;;;;;;;;;;;;;5.73;100.00;99767.06;5095087;28;19927;-76
2020/12/17 10:14:17;;;;;;;;;;;;;;;5.80;100.00;99778.28;5111146;28;19927;-76
2020/12/17 10:16:43;;;;;;;;;;;;;;;5.85;100.00;99780.75;5096032;28;19924;-77
2020/12/17 10:19:10;;;;;;;;;;;;;;;5.91;100.00;99784.81;5094448;28;19938;-76
2020/12/17 10:21:38;;;;;;;;;;;;;;;5.99;100.00;99794.81;5090687;28;19954;-76
2020/12/17 10:24:05;;;;;;;;;;;;;;;6.08;100.00;99789.78;5105320;28;19979;-77
2020/12/17 10:26:32;;;;;;;;;;;;;;;6.16;100.00;99803.41;5110528;28;19927;-77
2020/12/17 10:28:59;;;;;;;;;;;;;;;6.23;100.00;99808.22;5105997;28;19928;-76
2020/12/17 10:31:26;;;;;;;;;;;;;;;6.33;100.00;99815.91;5109132;28;19980;-77
2020/12/17 10:33:53;;;;;;;;;;;;;;;6.39;100.00;99806.06;5092614;28;20683;-77
2020/12/17 10:36:19;;;;;;;;;;;;;;;6.47;100.00;99807.72;5110148;28;19924;-77
2020/12/17 10:38:46;;;;;;;;;;;;;;;6.56;100.00;99816.56;5092045;28;19950;-77
2020/12/17 10:41:12;;;;;;;;;;;;;;;6.62;100.00;99813.06;5092527;28;19924;-77
2020/12/17 10:43:39;;;;;;;;;;;;;;;6.66;100.00;99811.16;5059014;28;19924;-77
2020/12/17 10:46:05;;;;;;;;;;;;;;;6.73;100.00;99818.75;5103393;28;19934;-76
2020/12/17 10:48:32;;;;;;;;;;;;;;;6.71;100.00;99813.56;5091605;28;19958;-76
2020/12/17 10:50:58;;;;;;;;;;;;;;;6.78;100.00;99812.88;5091769;28;19923;-78
2020/12/17 10:53:25;;;;;;;;;;;;;;;6.82;100.00;99808.94;5104947;28;19972;-77
2020/12/17 10:55:52;;;;;;;;;;;;;;;6.84;100.00;99806.59;5111437;28;19931;-76
2020/12/17 10:58:18;;;;;;;;;;;;;;;6.89;100.00;99813.78;5094580;28;19931;-77
2020/12/17 11:00:45;;;;;;;;;;;;;;;6.91;100.00;99812.22;5089175;28;19967;-77
2020/12/17 11:03:12;;;;;;;;;;;;;;;6.89;100.00;99819.34;5090269;28;19924;-77
2020/12/17 11:05:39;;;;;;;;;;;;;;;6.92;100.00;99824.13;5087206;28;19924;-78
2020/12/17 11:08:05;;;;;;;;;;;;;;;6.89;100.00;99819.34;5122063;27;20290;-78
2020/12/17 11:10:58;;;;;;;;;;;;;;;6.85;100.00;99819.28;5064348;28;19927;-76
2020/12/17 11:13:24;;;;;;;;;;;;;;;6.87;100.00;99811.38;5100391;28;20050;-76
2020/12/17 11:15:51;;;;;;;;;;;;;;;6.95;100.00;99813.03;5097560;28;19946;-76
2020/12/17 11:18:17;;;;;;;;;;;;;;;7.05;100.00;99820.69;5073049;28;19931;-77
2020/12/17 11:20:44;;;;;;;;;;;;;;;7.11;100.00;99815.59;5071416;28;19997;-76
2020/12/17 11:23:11;;;;;;;;;;;;;;;7.19;100.00;99828.38;5108501;28;19928;-76
2020/12/17 11:25:39;;;;;;;;;;;;;;;7.25;100.00;99818.50;5108630;28;19924;-76
2020/12/17 11:28:06;;;;;;;;;;;;;;;7.25;100.00;99821.28;5089688;28;19924;-76
2020/12/17 11:30:34;;;;;;;;;;;;;;;7.28;100.00;99815.72;5089289;28;19981;-76
2020/12/17 11:33:02;;;;;;;;;;;;;;;7.26;100.00;99800.63;5079235;28;19933;-76
2020/12/17 11:35:28;;;;;;;;;;;;;;;7.36;100.00;99794.38;5070778;28;20334;-76
2020/12/17 11:37:55;;;;;;;;;;;;;;;7.35;100.00;99776.09;5089127;28;19928;-76
2020/12/17 11:40:22;;;;;;;;;;;;;;;7.34;100.00;99786.44;5090633;28;19931;-76
2020/12/17 11:42:49;;;;;;;;;;;;;;;7.36;100.00;99769.38;5090675;28;19928;-76
2020/12/17 11:45:15;;;;;;;;;;;;;;;7.28;100.00;99765.69;5090084;28;19931;-76
2020/12/17 11:47:42;;;;;;;;;;;;;;;7.23;100.00;99751.38;5090023;28;19932;-76
2020/12/17 11:50:09;;;;;;;;;;;;;;;7.23;100.00;99741.06;5090127;28;19928;-76
2020/12/17 11:52:36;;;;;;;;;;;;;;;7.30;100.00;99741.09;5089424;28;19927;-77
2020/12/17 11:55:04;;;;;;;;;;;;;;;7.34;100.00;99741.13;5101089;28;19924;-76
2020/12/17 11:57:31;;;;;;;;;;;;;;;7.36;100.00;99724.88;5092300;28;19931;-76
2020/12/17 11:59:57;;;;;;;;;;;;;;;7.27;100.00;99718.81;5087540;28;20544;-76
2020/12/17 12:02:24;;;;;;;;;;;;;;;7.32;100.00;99718.47;5089279;28;19924;-77
2020/12/17 12:04:50;;;;;;;;;;;;;;;7.33;100.00;99711.72;5091653;27;19924;-76
2020/12/17 12:07:17;;;;;;;;;;;;;;;7.34;100.00;99713.34;5092768;28;20371;-76
2020/12/17 12:09:44;;;;;;;;;;;;;;;7.33;100.00;99711.72;5093297;28;19963;-77
2020/12/17 12:12:11;;;;;;;;;;;;;;;7.34;100.00;99708.59;5088439;28;20325;-76
2020/12/17 12:14:38;;;;;;;;;;;;;;;7.31;100.00;99714.09;5092190;28;20283;-77
2020/12/17 12:17:04;;;;;;;;;;;;;;;7.38;100.00;99703.03;5092325;28;20001;-75
2020/12/17 12:19:31;;;;;;;;;;;;;;;7.40;100.00;99695.09;5091287;28;20337;-75
2020/12/17 12:21:58;;;;;;;;;;;;;;;7.49;100.00;99694.75;5090838;28;19925;-75
2020/12/17 12:24:24;;;;;;;;;;;;;;;7.48;100.00;99685.63;5091963;28;19977;-76
2020/12/17 12:26:51;;;;;;;;;;;;;;;7.57;100.00;99685.28;5092345;28;20282;-77
2020/12/17 12:29:17;;;;;;;;;;;;;;;7.61;100.00;99684.13;5092445;28;19931;-75
2020/12/17 12:31:44;;;;;;;;;;;;;;;7.71;100.00;99677.81;5093290;28;19924;-76
2020/12/17 12:34:10;;;;;;;;;;;;;;;7.67;100.00;99662.28;5092495;28;19924;-77
2020/12/17 12:36:37;;;;;;;;;;;;;;;7.64;100.00;99649.97;5092724;28;19925;-76
2020/12/17 12:39:04;;;;;;;;;;;;;;;7.54;100.00;99633.22;5092853;28;20418;-76
2020/12/17 12:41:30;;;;;;;;;;;;;;;7.43;100.00;99632.34;5091995;28;19928;-76
2020/12/17 12:44:05;;;;;;;;;;;;;;;7.44;100.00;99620.84;5091767;28;19924;-76
2020/12/17 12:46:31;;;;;;;;;;;;;;;7.57;100.00;99610.19;5092956;28;19924;-75
2020/12/17 12:48:58;;;;;;;;;;;;;;;7.62;100.00;99615.38;5092329;27;19931;-72
2020/12/17 12:51:24;;;;;;;;;;;;;;;7.65;100.00;99612.59;5090842;28;19930;-76
2020/12/17 12:53:53;;;;;;;;;;;;;;;7.75;100.00;99603.53;5092350;28;19924;-76
2020/12/17 12:56:26;;;;;;;;;;;;;;;7.88;100.00;99604.75;5091807;28;19934;-76
2020/12/17 12:58:52;;;;;;;;;;;;;;;7.96;100.00;99603.59;5090271;28;20351;-77
2020/12/17 13:01:19;;;;;;;;;;;;;;;8.08;100.00;99597.66;5092585;28;19924;-76
2020/12/17 13:03:46;;;;;;;;;;;;;;;8.11;100.00;99587.72;5091849;28;19932;-76
2020/12/17 13:06:21;;;;;;;;;;;;;;;8.16;100.00;99588.16;5090436;28;19971;-76
2020/12/17 13:08:48;;;;;;;;;;;;;;;8.11;100.00;99574.59;5091987;27;19924;-76
2020/12/17 13:11:19;;;;;;;;;;;;;;;8.05;100.00;99565.06;5091825;28;19935;-76
2020/12/17 13:13:46;;;;;;;;;;;;;;;8.12;100.00;99564.28;5090561;28;19928;-77
2020/12/17 13:16:12;;;;;;;;;;;;;;;7.91;100.00;99534.41;5093741;28;19924;-78
2020/12/17 13:18:39;;;;;;;;;;;;;;;7.96;100.00;99520.13;5095267;28;19924;-77
2020/12/17 13:21:05;;;;;;;;;;;;;;;7.86;100.00;99470.78;5111403;28;19934;-77
2020/12/17 13:23:32;;;;;;;;;;;;;;;7.88;100.00;99471.19;5094450;28;19924;-77
2020/12/17 13:25:59;;;;;;;;;;;;;;;7.93;100.00;99461.66;5095792;28;19966;-77
2020/12/17 13:28:25;;;;;;;;;;;;;;;7.84;100.00;99453.72;5095987;28;19928;-77
2020/12/17 13:30:52;;;;;;;;;;;;;;;7.88;100.00;99448.94;5095906;27;20350;-77
2020/12/17 13:33:19;;;;;;;;;;;;;;;7.88;100.00;99435.03;5095875;28;20366;-77
2020/12/17 13:35:45;;;;;;;;;;;;;;;7.89;100.00;99428.25;5081332;28;20337;-78
2020/12/17 13:38:12;;;;;;;;;;;;;;;7.89;100.00;99427.50;5112814;28;19930;-78
2020/12/17 13:40:38;;;;;;;;;;;;;;;7.91;100.00;99425.88;5077168;28;19944;-77
2020/12/17 13:43:05;;;;;;;;;;;;;;;7.96;100.00;99428.28;5095422;28;20168;-77
2020/12/17 13:45:31;;;;;;;;;;;;;;;7.95;100.00;99426.69;5128367;27;19924;-77
2020/12/17 13:47:58;;;;;;;;;;;;;;;7.91;100.00;99414.75;5095074;28;20444;-77
2020/12/17 13:50:24;;;;;;;;;;;;;;;7.82;100.00;99416.34;5093835;28;19924;-77
2020/12/17 13:52:52;;;;;;;;;;;;;;;7.75;100.00;99413.56;5095307;28;19924;-77
2020/12/17 13:55:19;;;;;;;;;;;;;;;7.71;100.00;99418.34;5093807;28;19931;-77
2020/12/17 13:57:45;;;;;;;;;;;;;;;7.69;100.00;99417.94;5127942;27;20013;-77
2020/12/17 14:00:14;;;;;;;;;;;;;;;7.67;100.00;99435.00;5095279;28;19924;-78
2020/12/17 14:02:40;;;;;;;;;;;;;;;7.70;100.00;99436.19;5095218;28;19931;-77
2020/12/17 14:05:07;;;;;;;;;;;;;;;7.69;100.00;99441.00;5095094;28;20022;-77
2020/12/17 14:07:34;;;;;;;;;;;;;;;7.69;100.00;99440.19;5094943;28;20317;-77
2020/12/17 14:10:00;;;;;;;;;;;;;;;7.62;100.00;99438.16;5094603;28;19950;-77
2020/12/17 14:12:27;;;;;;;;;;;;;;;7.71;100.00;99455.28;5076725;28;20271;-77
2020/12/17 14:14:59;;;;;;;;;;;;;;;7.77;100.00;99453.69;5094858;28;20375;-77
2020/12/17 14:17:25;;;;;;;;;;;;;;;7.71;100.00;99455.28;5093488;28;20367;-75
2020/12/17 14:19:52;;;;;;;;;;;;;;;7.58;100.00;99459.63;5086726;28;19942;-75
2020/12/17 14:22:19;;;;;;;;;;;;;;;7.71;100.00;99471.19;5058609;28;20596;-73
2020/12/17 14:24:45;;;;;;;;;;;;;;;7.60;100.00;99487.84;5089232;28;20305;-73
2020/12/17 14:27:12;;;;;;;;;;;;;;;7.45;100.00;99497.34;5089088;28;19964;-73
2020/12/17 14:29:38;;;;;;;;;;;;;;;7.48;100.00;99504.91;5089070;28;19935;-73
2020/12/17 14:32:05;;;;;;;;;;;;;;;7.59;100.00;99522.41;5089584;28;19928;-74
2020/12/17 14:34:31;;;;;;;;;;;;;;;7.55;100.00;99535.50;5090909;28;19986;-73
2020/12/17 14:36:59;;;;;;;;;;;;;;;7.55;100.00;99541.06;5090114;28;19970;-73
2020/12/17 14:39:26;;;;;;;;;;;;;;;7.57;100.00;99552.59;5089792;28;19925;-73
2020/12/17 14:41:56;;;;;;;;;;;;;;;7.54;100.00;99564.50;5089117;28;19924;-77
2020/12/17 14:44:23;;;;;;;;;;;;;;;7.56;100.00;99569.69;5088769;28;20001;-76
2020/12/17 14:46:50;;;;;;;;;;;;;;;7.57;100.00;99577.63;5089738;28;19931;-73
2020/12/17 14:49:16;;;;;;;;;;;;;;;7.73;100.00;99597.53;5090528;28;19924;-74
2020/12/17 14:51:43;;;;;;;;;;;;;;;7.46;100.00;99582.34;5089444;28;19930;-73
2020/12/17 14:54:10;;;;;;;;;;;;;;;7.58;100.00;99609.00;5089265;28;19931;-74
2020/12/17 14:56:38;;;;;;;;;;;;;;;7.62;100.00;99610.59;5122801;27;19991;-73